Terminal Aerodrome Forecast
Issued by NWS

Home | Current Version | Previous Version | Text Only | Print | Product List | Glossary On
Versions: 1 2 3 4 5 6 7 8 9 10 11 12 13 14 15 16 17 18 19 20 21 22
000
FTUS41 KGYX 262320
TAFHIE
TAF
KHIE 262320Z 2700/2724 00000KT 1/2SM SN FZFG VV008
     FM270400 01006KT 2SM -SN BR SCT007 OVC015
     FM271200 32004KT P6SM -SHSN BKN035 OVC050=

USA.gov is the U.S. government's official web portal to all federal, state and local government web resources and services.